sensor_id;sensor_type;location;lat;lon;timestamp;temperature;humidity
15156;DHT22;7678;50.058;8.306;2023-02-22T00:00:44;5.10;99.90
15156;DHT22;7678;50.058;8.306;2023-02-22T00:03:17;5.10;99.90
15156;DHT22;7678;50.058;8.306;2023-02-22T00:05:52;5.20;99.90
15156;DHT22;7678;50.058;8.306;2023-02-22T00:08:23;5.20;99.90
15156;DHT22;7678;50.058;8.306;2023-02-22T00:10:53;5.20;99.90
15156;DHT22;7678;50.058;8.306;2023-02-22T00:13:21;5.20;99.90
15156;DHT22;7678;50.058;8.306;2023-02-22T00:15:49;5.10;99.90
15156;DHT22;7678;50.058;8.306;2023-02-22T00:18:18;5.00;99.90
15156;DHT22;7678;50.058;8.306;2023-02-22T00:20:46;4.80;99.90
15156;DHT22;7678;50.058;8.306;2023-02-22T00:23:17;4.80;99.90
15156;DHT22;7678;50.058;8.306;2023-02-22T00:25:46;4.70;99.90
15156;DHT22;7678;50.058;8.306;2023-02-22T00:28:17;4.60;99.90
15156;DHT22;7678;50.058;8.306;2023-02-22T00:30:45;4.40;99.90
15156;DHT22;7678;50.058;8.306;2023-02-22T00:33:14;4.40;99.90
15156;DHT22;7678;50.058;8.306;2023-02-22T00:35:43;4.40;99.90
15156;DHT22;7678;50.058;8.306;2023-02-22T00:38:13;4.40;99.90
15156;DHT22;7678;50.058;8.306;2023-02-22T00:40:43;4.30;99.90
15156;DHT22;7678;50.058;8.306;2023-02-22T00:43:12;4.30;99.90
15156;DHT22;7678;50.058;8.306;2023-02-22T00:45:42;4.30;99.90
15156;DHT22;7678;50.058;8.306;2023-02-22T00:48:10;4.20;99.90
15156;DHT22;7678;50.058;8.306;2023-02-22T00:50:39;4.10;99.90
15156;DHT22;7678;50.058;8.306;2023-02-22T00:53:07;4.00;99.90
15156;DHT22;7678;50.058;8.306;2023-02-22T00:55:36;3.80;99.90
15156;DHT22;7678;50.058;8.306;2023-02-22T00:58:06;3.80;99.90
15156;DHT22;7678;50.058;8.306;2023-02-22T01:00:36;4.00;99.90
15156;DHT22;7678;50.058;8.306;2023-02-22T01:03:07;4.10;99.90
15156;DHT22;7678;50.058;8.306;2023-02-22T01:05:36;4.20;99.90
15156;DHT22;7678;50.058;8.306;2023-02-22T01:08:06;4.10;99.90
15156;DHT22;7678;50.058;8.306;2023-02-22T01:10:36;4.00;99.90
15156;DHT22;7678;50.058;8.306;2023-02-22T01:13:05;4.00;99.90
15156;DHT22;7678;50.058;8.306;2023-02-22T01:15:36;4.00;99.90
15156;DHT22;7678;50.058;8.306;2023-02-22T01:18:06;4.00;99.90
15156;DHT22;7678;50.058;8.306;2023-02-22T01:20:34;3.90;99.90
15156;DHT22;7678;50.058;8.306;2023-02-22T01:23:04;3.80;99.90
15156;DHT22;7678;50.058;8.306;2023-02-22T01:25:34;3.70;99.90
15156;DHT22;7678;50.058;8.306;2023-02-22T01:28:05;3.80;99.90
15156;DHT22;7678;50.058;8.306;2023-02-22T01:30:34;3.70;99.90
15156;DHT22;7678;50.058;8.306;2023-02-22T01:33:06;3.70;99.90
15156;DHT22;7678;50.058;8.306;2023-02-22T01:35:36;3.70;99.90
15156;DHT22;7678;50.058;8.306;2023-02-22T01:38:06;3.70;99.90
15156;DHT22;7678;50.058;8.306;2023-02-22T01:40:37;3.60;99.90
15156;DHT22;7678;50.058;8.306;2023-02-22T01:43:17;3.60;99.90
15156;DHT22;7678;50.058;8.306;2023-02-22T01:46:01;3.50;99.90
15156;DHT22;7678;50.058;8.306;2023-02-22T01:48:39;3.50;99.90
15156;DHT22;7678;50.058;8.306;2023-02-22T01:51:12;3.40;99.90
15156;DHT22;7678;50.058;8.306;2023-02-22T01:53:47;3.30;99.90
15156;DHT22;7678;50.058;8.306;2023-02-22T01:56:18;3.30;99.90
15156;DHT22;7678;50.058;8.306;2023-02-22T01:58:51;3.20;99.90
15156;DHT22;7678;50.058;8.306;2023-02-22T02:01:22;3.20;99.90
15156;DHT22;7678;50.058;8.306;2023-02-22T02:03:55;3.10;99.90
15156;DHT22;7678;50.058;8.306;2023-02-22T02:06:25;3.30;99.90
15156;DHT22;7678;50.058;8.306;2023-02-22T02:08:59;3.30;99.90
15156;DHT22;7678;50.058;8.306;2023-02-22T02:11:30;3.40;99.90
15156;DHT22;7678;50.058;8.306;2023-02-22T02:13:59;3.30;99.90
15156;DHT22;7678;50.058;8.306;2023-02-22T02:16:34;3.40;99.90
15156;DHT22;7678;50.058;8.306;2023-02-22T02:19:11;3.40;99.90
15156;DHT22;7678;50.058;8.306;2023-02-22T02:22:09;3.30;99.90
15156;DHT22;7678;50.058;8.306;2023-02-22T02:27:45;3.30;99.90
15156;DHT22;7678;50.058;8.306;2023-02-22T02:30:42;3.40;99.90
15156;DHT22;7678;50.058;8.306;2023-02-22T02:33:17;3.20;99.90
15156;DHT22;7678;50.058;8.306;2023-02-22T02:35:55;3.10;99.90
15156;DHT22;7678;50.058;8.306;2023-02-22T02:38:31;3.10;99.90
15156;DHT22;7678;50.058;8.306;2023-02-22T02:41:08;3.00;99.90
15156;DHT22;7678;50.058;8.306;2023-02-22T02:43:43;2.90;99.90
15156;DHT22;7678;50.058;8.306;2023-02-22T02:46:15;3.00;99.90
15156;DHT22;7678;50.058;8.306;2023-02-22T02:48:50;3.10;99.90
15156;DHT22;7678;50.058;8.306;2023-02-22T02:51:21;3.10;99.90
15156;DHT22;7678;50.058;8.306;2023-02-22T02:53:51;3.00;99.90
15156;DHT22;7678;50.058;8.306;2023-02-22T02:56:20;3.20;99.90
15156;DHT22;7678;50.058;8.306;2023-02-22T02:58:51;3.20;99.90
15156;DHT22;7678;50.058;8.306;2023-02-22T03:01:42;3.30;99.90
15156;DHT22;7678;50.058;8.306;2023-02-22T03:04:21;3.30;99.90
15156;DHT22;7678;50.058;8.306;2023-02-22T03:07:17;3.10;99.90
15156;DHT22;7678;50.058;8.306;2023-02-22T03:09:58;3.20;99.90
15156;DHT22;7678;50.058;8.306;2023-02-22T03:12:39;3.10;99.90
15156;DHT22;7678;50.058;8.306;2023-02-22T03:15:21;2.90;99.90
15156;DHT22;7678;50.058;8.306;2023-02-22T03:17:53;2.90;99.90
15156;DHT22;7678;50.058;8.306;2023-02-22T03:20:30;2.70;99.90
15156;DHT22;7678;50.058;8.306;2023-02-22T03:23:03;2.70;99.90
15156;DHT22;7678;50.058;8.306;2023-02-22T03:25:37;2.60;99.90
15156;DHT22;7678;50.058;8.306;2023-02-22T03:28:09;2.80;99.90
15156;DHT22;7678;50.058;8.306;2023-02-22T03:30:42;2.90;99.90
15156;DHT22;7678;50.058;8.306;2023-02-22T03:33:16;2.90;99.90
15156;DHT22;7678;50.058;8.306;2023-02-22T03:35:52;3.10;99.90
15156;DHT22;7678;50.058;8.306;2023-02-22T03:38:25;3.00;99.90
15156;DHT22;7678;50.058;8.306;2023-02-22T03:40:58;2.80;99.90
15156;DHT22;7678;50.058;8.306;2023-02-22T03:43:30;2.60;99.90
15156;DHT22;7678;50.058;8.306;2023-02-22T03:46:00;2.60;99.90
15156;DHT22;7678;50.058;8.306;2023-02-22T03:48:36;2.60;99.90
15156;DHT22;7678;50.058;8.306;2023-02-22T03:51:07;2.90;99.90
15156;DHT22;7678;50.058;8.306;2023-02-22T03:53:35;2.70;99.90
15156;DHT22;7678;50.058;8.306;2023-02-22T03:56:04;2.70;99.90
15156;DHT22;7678;50.058;8.306;2023-02-22T03:58:36;2.70;99.90
15156;DHT22;7678;50.058;8.306;2023-02-22T04:01:04;2.80;99.90
15156;DHT22;7678;50.058;8.306;2023-02-22T04:03:33;2.90;99.90
15156;DHT22;7678;50.058;8.306;2023-02-22T04:06:01;2.90;99.90
15156;DHT22;7678;50.058;8.306;2023-02-22T04:08:30;2.80;99.90
15156;DHT22;7678;50.058;8.306;2023-02-22T04:10:59;2.70;99.90
15156;DHT22;7678;50.058;8.306;2023-02-22T04:13:27;2.60;99.90
15156;DHT22;7678;50.058;8.306;2023-02-22T04:15:55;2.60;99.90
15156;DHT22;7678;50.058;8.306;2023-02-22T04:18:23;2.50;99.90
15156;DHT22;7678;50.058;8.306;2023-02-22T04:20:51;2.40;99.90
15156;DHT22;7678;50.058;8.306;2023-02-22T04:23:20;2.50;99.90
15156;DHT22;7678;50.058;8.306;2023-02-22T04:25:49;2.50;99.90
15156;DHT22;7678;50.058;8.306;2023-02-22T04:28:17;2.40;99.90
15156;DHT22;7678;50.058;8.306;2023-02-22T04:30:45;2.30;99.90
15156;DHT22;7678;50.058;8.306;2023-02-22T04:33:14;2.30;99.90
15156;DHT22;7678;50.058;8.306;2023-02-22T04:35:42;2.30;99.90
15156;DHT22;7678;50.058;8.306;2023-02-22T04:38:11;2.30;99.90
15156;DHT22;7678;50.058;8.306;2023-02-22T04:40:39;2.30;99.90
15156;DHT22;7678;50.058;8.306;2023-02-22T04:43:08;2.40;99.90
15156;DHT22;7678;50.058;8.306;2023-02-22T04:45:36;2.40;99.90
15156;DHT22;7678;50.058;8.306;2023-02-22T04:48:04;2.50;99.90
15156;DHT22;7678;50.058;8.306;2023-02-22T04:50:32;2.50;99.90
15156;DHT22;7678;50.058;8.306;2023-02-22T04:53:00;2.40;99.90
15156;DHT22;7678;50.058;8.306;2023-02-22T04:55:28;2.40;99.90
15156;DHT22;7678;50.058;8.306;2023-02-22T04:57:56;2.30;99.90
15156;DHT22;7678;50.058;8.306;2023-02-22T05:00:26;2.30;99.90
15156;DHT22;7678;50.058;8.306;2023-02-22T05:02:54;2.30;99.90
15156;DHT22;7678;50.058;8.306;2023-02-22T05:05:22;2.20;99.90
15156;DHT22;7678;50.058;8.306;2023-02-22T05:07:50;2.10;99.90
15156;DHT22;7678;50.058;8.306;2023-02-22T05:10:19;1.90;99.90
15156;DHT22;7678;50.058;8.306;2023-02-22T05:12:47;2.00;99.90
15156;DHT22;7678;50.058;8.306;2023-02-22T05:15:16;2.00;99.90
15156;DHT22;7678;50.058;8.306;2023-02-22T05:17:46;2.10;99.90
15156;DHT22;7678;50.058;8.306;2023-02-22T05:20:17;2.10;99.90
15156;DHT22;7678;50.058;8.306;2023-02-22T05:22:48;2.10;99.90
15156;DHT22;7678;50.058;8.306;2023-02-22T05:25:17;2.20;99.90
15156;DHT22;7678;50.058;8.306;2023-02-22T05:27:49;2.00;99.90
15156;DHT22;7678;50.058;8.306;2023-02-22T05:30:18;2.10;99.90
15156;DHT22;7678;50.058;8.306;2023-02-22T05:32:47;2.10;99.90
15156;DHT22;7678;50.058;8.306;2023-02-22T05:35:16;2.10;99.90
15156;DHT22;7678;50.058;8.306;2023-02-22T05:37:44;2.00;99.90
15156;DHT22;7678;50.058;8.306;2023-02-22T05:40:13;2.10;99.90
15156;DHT22;7678;50.058;8.306;2023-02-22T05:42:41;2.10;99.90
15156;DHT22;7678;50.058;8.306;2023-02-22T05:45:11;1.90;99.90
15156;DHT22;7678;50.058;8.306;2023-02-22T05:47:40;2.00;99.90
15156;DHT22;7678;50.058;8.306;2023-02-22T05:50:09;2.00;99.90
15156;DHT22;7678;50.058;8.306;2023-02-22T05:52:38;2.10;99.90
15156;DHT22;7678;50.058;8.306;2023-02-22T05:55:06;1.90;99.90
15156;DHT22;7678;50.058;8.306;2023-02-22T05:57:35;1.90;99.90
15156;DHT22;7678;50.058;8.306;2023-02-22T06:00:05;2.00;99.90
15156;DHT22;7678;50.058;8.306;2023-02-22T06:02:34;2.00;99.90
15156;DHT22;7678;50.058;8.306;2023-02-22T06:05:02;1.90;99.90
15156;DHT22;7678;50.058;8.306;2023-02-22T06:07:32;1.90;99.90
15156;DHT22;7678;50.058;8.306;2023-02-22T06:10:00;2.00;99.90
15156;DHT22;7678;50.058;8.306;2023-02-22T06:12:28;2.00;99.90
15156;DHT22;7678;50.058;8.306;2023-02-22T06:14:56;2.00;99.90
15156;DHT22;7678;50.058;8.306;2023-02-22T06:17:24;2.00;99.90
15156;DHT22;7678;50.058;8.306;2023-02-22T06:19:51;2.00;99.90
15156;DHT22;7678;50.058;8.306;2023-02-22T06:22:19;2.00;99.90
15156;DHT22;7678;50.058;8.306;2023-02-22T06:24:49;2.00;99.90
15156;DHT22;7678;50.058;8.306;2023-02-22T06:27:19;2.00;99.90
15156;DHT22;7678;50.058;8.306;2023-02-22T06:29:47;1.90;99.90
15156;DHT22;7678;50.058;8.306;2023-02-22T06:32:15;1.80;99.90
15156;DHT22;7678;50.058;8.306;2023-02-22T06:34:43;1.80;99.90
15156;DHT22;7678;50.058;8.306;2023-02-22T06:37:11;1.70;99.90
15156;DHT22;7678;50.058;8.306;2023-02-22T06:39:39;1.80;99.90
15156;DHT22;7678;50.058;8.306;2023-02-22T06:42:09;1.90;99.90
15156;DHT22;7678;50.058;8.306;2023-02-22T06:44:37;1.90;99.90
15156;DHT22;7678;50.058;8.306;2023-02-22T06:47:05;2.00;99.90
15156;DHT22;7678;50.058;8.306;2023-02-22T06:49:33;2.20;99.90
15156;DHT22;7678;50.058;8.306;2023-02-22T06:52:04;2.30;99.90
15156;DHT22;7678;50.058;8.306;2023-02-22T06:54:32;2.40;99.90
15156;DHT22;7678;50.058;8.306;2023-02-22T06:57:00;2.40;99.90
15156;DHT22;7678;50.058;8.306;2023-02-22T06:59:29;2.50;99.90
15156;DHT22;7678;50.058;8.306;2023-02-22T07:01:57;2.50;99.90
15156;DHT22;7678;50.058;8.306;2023-02-22T07:04:25;2.50;99.90
15156;DHT22;7678;50.058;8.306;2023-02-22T07:06:54;2.60;99.90
15156;DHT22;7678;50.058;8.306;2023-02-22T07:09:22;2.60;99.90
15156;DHT22;7678;50.058;8.306;2023-02-22T07:11:50;2.60;99.90
15156;DHT22;7678;50.058;8.306;2023-02-22T07:14:18;2.60;99.90
15156;DHT22;7678;50.058;8.306;2023-02-22T07:16:47;2.60;99.90
15156;DHT22;7678;50.058;8.306;2023-02-22T07:19:15;2.60;99.90
15156;DHT22;7678;50.058;8.306;2023-02-22T07:21:43;2.50;99.90
15156;DHT22;7678;50.058;8.306;2023-02-22T07:24:13;2.50;99.90
15156;DHT22;7678;50.058;8.306;2023-02-22T07:26:42;2.40;99.90
15156;DHT22;7678;50.058;8.306;2023-02-22T07:29:10;2.50;99.90
15156;DHT22;7678;50.058;8.306;2023-02-22T07:31:38;2.50;99.90
15156;DHT22;7678;50.058;8.306;2023-02-22T07:34:07;2.50;99.90
15156;DHT22;7678;50.058;8.306;2023-02-22T07:36:35;2.60;99.90
15156;DHT22;7678;50.058;8.306;2023-02-22T07:39:03;2.60;99.90
15156;DHT22;7678;50.058;8.306;2023-02-22T07:41:34;2.60;99.90
15156;DHT22;7678;50.058;8.306;2023-02-22T07:44:02;2.70;99.90
15156;DHT22;7678;50.058;8.306;2023-02-22T07:46:30;2.70;99.90
15156;DHT22;7678;50.058;8.306;2023-02-22T07:48:59;2.80;99.90
15156;DHT22;7678;50.058;8.306;2023-02-22T07:51:30;2.90;99.90
15156;DHT22;7678;50.058;8.306;2023-02-22T07:53:58;3.10;99.90
15156;DHT22;7678;50.058;8.306;2023-02-22T07:56:27;3.20;99.90
15156;DHT22;7678;50.058;8.306;2023-02-22T07:58:55;3.20;99.90
15156;DHT22;7678;50.058;8.306;2023-02-22T08:01:23;3.30;99.90
15156;DHT22;7678;50.058;8.306;2023-02-22T08:03:52;3.50;99.90
15156;DHT22;7678;50.058;8.306;2023-02-22T08:06:22;3.70;99.90
15156;DHT22;7678;50.058;8.306;2023-02-22T08:08:53;3.90;99.90
15156;DHT22;7678;50.058;8.306;2023-02-22T08:11:21;4.00;99.90
15156;DHT22;7678;50.058;8.306;2023-02-22T08:13:49;4.20;99.90
15156;DHT22;7678;50.058;8.306;2023-02-22T08:16:17;4.20;99.90
15156;DHT22;7678;50.058;8.306;2023-02-22T08:18:46;4.30;99.90
15156;DHT22;7678;50.058;8.306;2023-02-22T08:21:15;4.40;99.90
15156;DHT22;7678;50.058;8.306;2023-02-22T08:23:44;4.60;99.90
15156;DHT22;7678;50.058;8.306;2023-02-22T08:26:21;4.70;99.90
15156;DHT22;7678;50.058;8.306;2023-02-22T08:28:51;4.70;99.90
15156;DHT22;7678;50.058;8.306;2023-02-22T08:31:19;4.70;99.90
15156;DHT22;7678;50.058;8.306;2023-02-22T08:33:48;4.90;99.90
15156;DHT22;7678;50.058;8.306;2023-02-22T08:36:18;5.10;99.90
15156;DHT22;7678;50.058;8.306;2023-02-22T08:38:46;5.20;99.90
15156;DHT22;7678;50.058;8.306;2023-02-22T08:41:14;5.20;99.90
15156;DHT22;7678;50.058;8.306;2023-02-22T08:43:44;5.40;99.90
15156;DHT22;7678;50.058;8.306;2023-02-22T08:46:12;5.50;99.90
15156;DHT22;7678;50.058;8.306;2023-02-22T08:48:48;5.70;99.90
15156;DHT22;7678;50.058;8.306;2023-02-22T08:51:17;5.90;99.90
15156;DHT22;7678;50.058;8.306;2023-02-22T08:53:45;6.10;99.90
15156;DHT22;7678;50.058;8.306;2023-02-22T08:56:13;6.20;99.90
15156;DHT22;7678;50.058;8.306;2023-02-22T08:58:41;6.30;99.90
15156;DHT22;7678;50.058;8.306;2023-02-22T09:01:10;6.50;99.90
15156;DHT22;7678;50.058;8.306;2023-02-22T09:03:47;6.60;99.90
15156;DHT22;7678;50.058;8.306;2023-02-22T09:06:15;6.80;99.90
15156;DHT22;7678;50.058;8.306;2023-02-22T09:08:43;7.00;99.90
15156;DHT22;7678;50.058;8.306;2023-02-22T09:11:11;7.10;99.90
15156;DHT22;7678;50.058;8.306;2023-02-22T09:13:40;7.20;99.90
15156;DHT22;7678;50.058;8.306;2023-02-22T09:16:09;7.20;99.90
15156;DHT22;7678;50.058;8.306;2023-02-22T09:18:38;7.30;99.90
15156;DHT22;7678;50.058;8.306;2023-02-22T09:21:11;7.30;99.90
15156;DHT22;7678;50.058;8.306;2023-02-22T09:23:39;7.20;99.90
15156;DHT22;7678;50.058;8.306;2023-02-22T09:26:08;7.40;99.90
15156;DHT22;7678;50.058;8.306;2023-02-22T09:28:37;7.40;99.90
15156;DHT22;7678;50.058;8.306;2023-02-22T09:31:05;7.60;99.90
15156;DHT22;7678;50.058;8.306;2023-02-22T09:33:34;7.50;99.90
15156;DHT22;7678;50.058;8.306;2023-02-22T09:36:02;7.40;99.90
15156;DHT22;7678;50.058;8.306;2023-02-22T09:38:32;7.30;99.90
15156;DHT22;7678;50.058;8.306;2023-02-22T09:41:09;7.40;99.90
15156;DHT22;7678;50.058;8.306;2023-02-22T09:43:43;7.40;99.90
15156;DHT22;7678;50.058;8.306;2023-02-22T09:46:22;7.60;99.90
15156;DHT22;7678;50.058;8.306;2023-02-22T09:49:01;7.70;99.90
15156;DHT22;7678;50.058;8.306;2023-02-22T09:51:36;7.80;99.90
15156;DHT22;7678;50.058;8.306;2023-02-22T09:54:13;7.90;99.90
15156;DHT22;7678;50.058;8.306;2023-02-22T09:56:44;7.80;99.90
15156;DHT22;7678;50.058;8.306;2023-02-22T09:59:18;7.80;99.90
15156;DHT22;7678;50.058;8.306;2023-02-22T10:01:54;7.70;99.90
15156;DHT22;7678;50.058;8.306;2023-02-22T10:04:35;7.70;99.90
15156;DHT22;7678;50.058;8.306;2023-02-22T10:07:14;7.70;99.90
15156;DHT22;7678;50.058;8.306;2023-02-22T10:09:45;8.00;99.90
15156;DHT22;7678;50.058;8.306;2023-02-22T10:12:24;8.20;99.90
15156;DHT22;7678;50.058;8.306;2023-02-22T10:15:25;8.00;99.90
15156;DHT22;7678;50.058;8.306;2023-02-22T10:18:29;7.90;99.90
15156;DHT22;7678;50.058;8.306;2023-02-22T10:21:05;7.90;99.90
15156;DHT22;7678;50.058;8.306;2023-02-22T10:23:42;7.90;99.90
15156;DHT22;7678;50.058;8.306;2023-02-22T10:26:15;7.60;99.90
15156;DHT22;7678;50.058;8.306;2023-02-22T10:28:51;7.40;99.90
15156;DHT22;7678;50.058;8.306;2023-02-22T10:31:23;7.60;99.90
15156;DHT22;7678;50.058;8.306;2023-02-22T10:33:55;8.00;99.90
15156;DHT22;7678;50.058;8.306;2023-02-22T10:36:28;8.20;99.90
15156;DHT22;7678;50.058;8.306;2023-02-22T10:38:58;8.50;99.90
15156;DHT22;7678;50.058;8.306;2023-02-22T10:41:29;8.30;99.90
15156;DHT22;7678;50.058;8.306;2023-02-22T10:43:58;8.30;99.90
15156;DHT22;7678;50.058;8.306;2023-02-22T10:46:27;8.10;99.90
15156;DHT22;7678;50.058;8.306;2023-02-22T10:49:00;8.00;99.90
15156;DHT22;7678;50.058;8.306;2023-02-22T10:51:31;8.00;99.90
15156;DHT22;7678;50.058;8.306;2023-02-22T10:54:18;8.10;99.90
15156;DHT22;7678;50.058;8.306;2023-02-22T10:56:51;8.30;99.90
15156;DHT22;7678;50.058;8.306;2023-02-22T10:59:30;8.50;99.90
15156;DHT22;7678;50.058;8.306;2023-02-22T11:02:00;8.80;99.90
15156;DHT22;7678;50.058;8.306;2023-02-22T11:04:44;8.70;99.90
15156;DHT22;7678;50.058;8.306;2023-02-22T11:07:21;8.90;99.90
15156;DHT22;7678;50.058;8.306;2023-02-22T11:09:52;8.70;99.90
15156;DHT22;7678;50.058;8.306;2023-02-22T11:12:26;8.70;99.90
15156;DHT22;7678;50.058;8.306;2023-02-22T11:14:55;8.80;99.90
15156;DHT22;7678;50.058;8.306;2023-02-22T11:17:28;8.90;99.90
15156;DHT22;7678;50.058;8.306;2023-02-22T11:20:17;8.90;99.90
15156;DHT22;7678;50.058;8.306;2023-02-22T11:22:53;8.90;99.90
15156;DHT22;7678;50.058;8.306;2023-02-22T11:25:28;9.10;99.90
15156;DHT22;7678;50.058;8.306;2023-02-22T11:28:06;9.00;99.90
15156;DHT22;7678;50.058;8.306;2023-02-22T11:30:35;8.90;99.90
15156;DHT22;7678;50.058;8.306;2023-02-22T11:33:12;9.00;99.90
15156;DHT22;7678;50.058;8.306;2023-02-22T11:35:50;9.00;99.90
15156;DHT22;7678;50.058;8.306;2023-02-22T11:38:21;9.10;99.90
15156;DHT22;7678;50.058;8.306;2023-02-22T11:41:12;9.30;99.90
15156;DHT22;7678;50.058;8.306;2023-02-22T11:43:42;9.40;99.90
15156;DHT22;7678;50.058;8.306;2023-02-22T11:46:12;9.40;99.90
15156;DHT22;7678;50.058;8.306;2023-02-22T11:48:54;9.40;99.90
15156;DHT22;7678;50.058;8.306;2023-02-22T11:51:37;9.40;99.90
15156;DHT22;7678;50.058;8.306;2023-02-22T11:54:38;9.60;99.90
15156;DHT22;7678;50.058;8.306;2023-02-22T11:57:18;9.90;99.90
15156;DHT22;7678;50.058;8.306;2023-02-22T12:00:01;10.10;99.90
15156;DHT22;7678;50.058;8.306;2023-02-22T12:02:54;10.10;99.90
15156;DHT22;7678;50.058;8.306;2023-02-22T12:05:33;10.20;99.90
15156;DHT22;7678;50.058;8.306;2023-02-22T12:08:18;10.30;99.90
15156;DHT22;7678;50.058;8.306;2023-02-22T12:10:57;10.10;99.90
15156;DHT22;7678;50.058;8.306;2023-02-22T12:13:40;9.90;99.90
15156;DHT22;7678;50.058;8.306;2023-02-22T12:16:18;9.90;99.90
15156;DHT22;7678;50.058;8.306;2023-02-22T12:19:04;9.70;99.90
15156;DHT22;7678;50.058;8.306;2023-02-22T12:21:36;9.40;99.90
15156;DHT22;7678;50.058;8.306;2023-02-22T12:24:09;9.60;99.90
15156;DHT22;7678;50.058;8.306;2023-02-22T12:26:43;9.90;99.90
15156;DHT22;7678;50.058;8.306;2023-02-22T12:29:20;10.30;99.90
15156;DHT22;7678;50.058;8.306;2023-02-22T12:31:56;10.40;99.90
15156;DHT22;7678;50.058;8.306;2023-02-22T12:34:29;10.30;99.90
15156;DHT22;7678;50.058;8.306;2023-02-22T12:37:02;10.20;99.90
15156;DHT22;7678;50.058;8.306;2023-02-22T12:39:39;10.50;99.90
15156;DHT22;7678;50.058;8.306;2023-02-22T12:42:26;10.70;99.90
15156;DHT22;7678;50.058;8.306;2023-02-22T12:45:00;11.00;99.90
15156;DHT22;7678;50.058;8.306;2023-02-22T12:47:39;11.00;99.90
15156;DHT22;7678;50.058;8.306;2023-02-22T12:50:16;11.10;99.90
15156;DHT22;7678;50.058;8.306;2023-02-22T12:52:50;11.10;99.90
15156;DHT22;7678;50.058;8.306;2023-02-22T12:55:22;11.20;99.90
15156;DHT22;7678;50.058;8.306;2023-02-22T12:57:58;10.90;99.90
15156;DHT22;7678;50.058;8.306;2023-02-22T13:00:34;11.20;99.90
15156;DHT22;7678;50.058;8.306;2023-02-22T13:03:23;11.10;99.90
15156;DHT22;7678;50.058;8.306;2023-02-22T13:06:00;11.00;99.90
15156;DHT22;7678;50.058;8.306;2023-02-22T13:08:36;10.90;99.90
15156;DHT22;7678;50.058;8.306;2023-02-22T13:11:14;11.00;99.90
15156;DHT22;7678;50.058;8.306;2023-02-22T13:13:51;10.80;99.90
15156;DHT22;7678;50.058;8.306;2023-02-22T13:16:30;10.90;99.90
15156;DHT22;7678;50.058;8.306;2023-02-22T13:19:06;11.00;99.90
15156;DHT22;7678;50.058;8.306;2023-02-22T13:21:45;10.90;99.90
15156;DHT22;7678;50.058;8.306;2023-02-22T13:24:20;11.00;99.90
15156;DHT22;7678;50.058;8.306;2023-02-22T13:26:50;11.00;99.90
15156;DHT22;7678;50.058;8.306;2023-02-22T13:29:25;11.00;99.90
15156;DHT22;7678;50.058;8.306;2023-02-22T13:32:07;10.80;99.90
15156;DHT22;7678;50.058;8.306;2023-02-22T13:34:54;10.80;99.90
15156;DHT22;7678;50.058;8.306;2023-02-22T13:41:00;10.80;99.90
15156;DHT22;7678;50.058;8.306;2023-02-22T13:43:50;11.00;99.90
15156;DHT22;7678;50.058;8.306;2023-02-22T13:46:40;10.90;99.90
15156;DHT22;7678;50.058;8.306;2023-02-22T13:49:27;10.80;99.90
15156;DHT22;7678;50.058;8.306;2023-02-22T13:51:59;10.80;99.90
15156;DHT22;7678;50.058;8.306;2023-02-22T13:54:36;10.70;99.90
15156;DHT22;7678;50.058;8.306;2023-02-22T13:57:18;10.70;99.90
15156;DHT22;7678;50.058;8.306;2023-02-22T13:59:46;10.80;99.90
15156;DHT22;7678;50.058;8.306;2023-02-22T14:02:55;10.80;99.90
15156;DHT22;7678;50.058;8.306;2023-02-22T14:05:51;10.70;99.90
15156;DHT22;7678;50.058;8.306;2023-02-22T14:08:40;10.60;99.90
15156;DHT22;7678;50.058;8.306;2023-02-22T14:14:23;10.50;99.90
15156;DHT22;7678;50.058;8.306;2023-02-22T14:17:23;10.70;99.90
15156;DHT22;7678;50.058;8.306;2023-02-22T14:20:24;10.60;99.90
15156;DHT22;7678;50.058;8.306;2023-02-22T14:23:28;10.80;99.90
15156;DHT22;7678;50.058;8.306;2023-02-22T14:26:10;10.80;99.90
15156;DHT22;7678;50.058;8.306;2023-02-22T14:28:46;10.90;99.90
15156;DHT22;7678;50.058;8.306;2023-02-22T14:31:17;11.00;99.90
15156;DHT22;7678;50.058;8.306;2023-02-22T14:34:06;10.80;99.90
15156;DHT22;7678;50.058;8.306;2023-02-22T14:36:46;10.90;99.90
15156;DHT22;7678;50.058;8.306;2023-02-22T14:39:21;10.90;99.90
15156;DHT22;7678;50.058;8.306;2023-02-22T14:41:56;11.00;99.90
15156;DHT22;7678;50.058;8.306;2023-02-22T14:44:30;11.10;99.90
15156;DHT22;7678;50.058;8.306;2023-02-22T14:47:03;11.10;99.90
15156;DHT22;7678;50.058;8.306;2023-02-22T14:49:35;11.20;99.90
15156;DHT22;7678;50.058;8.306;2023-02-22T14:52:16;11.30;99.90
15156;DHT22;7678;50.058;8.306;2023-02-22T14:54:51;11.40;99.90
15156;DHT22;7678;50.058;8.306;2023-02-22T14:57:29;11.50;99.90
15156;DHT22;7678;50.058;8.306;2023-02-22T15:00:04;11.40;99.90
15156;DHT22;7678;50.058;8.306;2023-02-22T15:02:46;11.40;99.90
15156;DHT22;7678;50.058;8.306;2023-02-22T15:05:16;11.50;99.90
15156;DHT22;7678;50.058;8.306;2023-02-22T15:07:55;11.40;99.90
15156;DHT22;7678;50.058;8.306;2023-02-22T15:10:28;11.30;99.90
15156;DHT22;7678;50.058;8.306;2023-02-22T15:12:59;11.30;99.90
15156;DHT22;7678;50.058;8.306;2023-02-22T15:15:38;11.40;99.90
15156;DHT22;7678;50.058;8.306;2023-02-22T15:18:22;11.40;99.90
15156;DHT22;7678;50.058;8.306;2023-02-22T15:20:56;11.20;99.90
15156;DHT22;7678;50.058;8.306;2023-02-22T15:23:28;11.20;99.90
15156;DHT22;7678;50.058;8.306;2023-02-22T15:25:59;11.20;99.90
15156;DHT22;7678;50.058;8.306;2023-02-22T15:28:28;11.30;99.90
15156;DHT22;7678;50.058;8.306;2023-02-22T15:31:22;11.20;99.90
15156;DHT22;7678;50.058;8.306;2023-02-22T15:33:53;11.20;99.90
15156;DHT22;7678;50.058;8.306;2023-02-22T15:36:25;11.20;99.90
15156;DHT22;7678;50.058;8.306;2023-02-22T15:38:55;11.20;99.90
15156;DHT22;7678;50.058;8.306;2023-02-22T15:41:27;11.20;99.90
15156;DHT22;7678;50.058;8.306;2023-02-22T15:44:01;11.10;99.90
15156;DHT22;7678;50.058;8.306;2023-02-22T15:46:48;11.10;99.90
15156;DHT22;7678;50.058;8.306;2023-02-22T15:49:19;11.10;99.90
15156;DHT22;7678;50.058;8.306;2023-02-22T15:52:00;11.10;99.90
15156;DHT22;7678;50.058;8.306;2023-02-22T15:54:39;11.10;99.90
15156;DHT22;7678;50.058;8.306;2023-02-22T15:57:11;11.10;99.90
15156;DHT22;7678;50.058;8.306;2023-02-22T15:59:43;11.00;99.90
15156;DHT22;7678;50.058;8.306;2023-02-22T16:02:32;10.90;99.90
15156;DHT22;7678;50.058;8.306;2023-02-22T16:05:06;10.90;99.90
15156;DHT22;7678;50.058;8.306;2023-02-22T16:07:38;10.80;99.90
15156;DHT22;7678;50.058;8.306;2023-02-22T16:10:30;10.70;99.90
15156;DHT22;7678;50.058;8.306;2023-02-22T16:13:18;10.60;99.90
15156;DHT22;7678;50.058;8.306;2023-02-22T16:16:00;10.40;99.90
15156;DHT22;7678;50.058;8.306;2023-02-22T16:18:31;10.30;99.90
15156;DHT22;7678;50.058;8.306;2023-02-22T16:21:05;10.20;99.90
15156;DHT22;7678;50.058;8.306;2023-02-22T16:23:43;10.10;99.90
15156;DHT22;7678;50.058;8.306;2023-02-22T16:26:21;10.20;99.90
15156;DHT22;7678;50.058;8.306;2023-02-22T16:28:50;10.00;99.90
15156;DHT22;7678;50.058;8.306;2023-02-22T16:31:20;10.00;99.90
15156;DHT22;7678;50.058;8.306;2023-02-22T16:33:51;10.00;99.90
15156;DHT22;7678;50.058;8.306;2023-02-22T16:36:23;9.90;99.90
15156;DHT22;7678;50.058;8.306;2023-02-22T16:38:51;9.90;99.90
15156;DHT22;7678;50.058;8.306;2023-02-22T16:41:21;10.00;99.90
15156;DHT22;7678;50.058;8.306;2023-02-22T16:43:49;9.90;99.90
15156;DHT22;7678;50.058;8.306;2023-02-22T16:46:18;9.90;99.90